Time;durP1;ratioP1;P1;durP2;ratioP2;P2;SDS_P1;SDS_P2;PMS_P1;PMS_P2;Temp;Humidity;BMP_temperature;BMP_pressure;BME280_temperature;BME280_humidity;BME280_pressure;Samples;Min_cycle;Max_cycle;Signal;HPM_P1;HPM_P2
2022/04/14 00:00:09;;;;;;;20.97;11.93;;;;;;;6.99;58.69;100843.66;1662591;85;21538;-75
2022/04/14 00:02:41;;;;;;;18.60;11.00;;;;;;;7.00;59.45;100847.11;1662585;85;21051;-75
2022/04/14 00:05:09;;;;;;;17.93;11.53;;;;;;;7.05;60.01;100847.46;1662483;85;21070;-75
2022/04/14 00:07:36;;;;;;;17.93;10.77;;;;;;;7.05;59.96;100848.77;1662580;86;21433;-75
2022/04/14 00:10:05;;;;;;;19.63;11.30;;;;;;;6.97;59.74;100852.38;1663407;85;21039;-76
2022/04/14 00:12:33;;;;;;;16.77;10.73;;;;;;;6.86;59.77;100853.83;1659569;86;21058;-75
2022/04/14 00:15:01;;;;;;;19.60;10.83;;;;;;;6.81;60.11;100844.77;1662596;85;21112;-75
2022/04/14 00:17:29;;;;;;;17.63;11.03;;;;;;;6.83;60.36;100850.83;1663820;85;21059;-75
2022/04/14 00:19:56;;;;;;;30.20;17.53;;;;;;;6.79;60.45;100836.14;1662773;86;21072;-75
2022/04/14 00:22:23;;;;;;;48.60;23.97;;;;;;;6.83;61.04;100839.55;1662629;85;21165;-75
2022/04/14 00:24:50;;;;;;;40.47;21.17;;;;;;;6.83;61.54;100836.50;1661584;84;21031;-76
2022/04/14 00:27:20;;;;;;;29.70;16.97;;;;;;;6.84;61.47;100838.66;1661682;85;21072;-75
2022/04/14 00:29:48;;;;;;;30.12;17.48;;;;;;;6.80;61.35;100839.16;1662795;85;26107;-75
2022/04/14 00:32:15;;;;;;;33.50;19.00;;;;;;;6.71;61.20;100841.90;1662441;86;21071;-75
2022/04/14 00:34:42;;;;;;;37.37;21.33;;;;;;;6.66;61.23;100846.30;1648732;84;21043;-75
2022/04/14 00:37:10;;;;;;;44.20;23.77;;;;;;;6.62;61.21;100844.61;1661946;86;21106;-75
2022/04/14 00:39:38;;;;;;;53.00;29.23;;;;;;;6.56;61.43;100849.46;1661870;85;21212;-75
2022/04/14 00:42:10;;;;;;;43.13;24.07;;;;;;;6.50;61.44;100842.18;1743109;78;21071;-76
2022/04/14 00:44:39;;;;;;;47.27;25.30;;;;;;;6.48;61.72;100841.77;1741997;81;21015;-77
2022/04/14 00:47:08;;;;;;;50.77;26.43;;;;;;;6.43;61.72;100845.32;1795035;79;21478;-75
2022/04/14 00:49:36;;;;;;;52.60;27.93;;;;;;;6.40;61.93;100842.31;1807659;78;21008;-75
2022/04/14 00:52:04;;;;;;;48.17;27.17;;;;;;;6.40;62.01;100834.50;1791031;78;21051;-76
2022/04/14 00:54:32;;;;;;;54.43;30.83;;;;;;;6.41;62.16;100836.21;1797771;78;21549;-75
2022/04/14 00:57:01;;;;;;;48.93;28.63;;;;;;;6.44;62.40;100836.17;1800459;79;20965;-75
2022/04/14 00:59:30;;;;;;;62.27;31.63;;;;;;;6.50;62.36;100840.44;1804574;78;21024;-75
2022/04/14 01:01:58;;;;;;;59.90;29.97;;;;;;;6.43;62.04;100833.16;1733558;81;21399;-75
2022/04/14 01:04:25;;;;;;;55.83;29.93;;;;;;;6.34;62.06;100836.30;1718559;82;21096;-75
2022/04/14 01:06:52;;;;;;;59.43;30.07;;;;;;;6.28;62.04;100830.73;1694731;83;21040;-75
2022/04/14 01:09:20;;;;;;;52.33;28.07;;;;;;;6.24;62.18;100825.16;1685629;85;21020;-75
2022/04/14 01:11:50;;;;;;;51.30;27.47;;;;;;;6.18;62.16;100828.70;1686269;85;21079;-75
2022/04/14 01:14:35;;;;;;;;;;;;;;;6.12;62.29;100831.34;1688502;85;21040;-75
2022/04/14 01:17:07;;;;;;;41.83;21.07;;;;;;;6.08;62.71;100824.47;1744516;81;21147;-76
2022/04/14 01:19:35;;;;;;;50.23;25.37;;;;;;;6.03;62.58;100828.86;1737052;80;21017;-75
2022/04/14 01:22:26;;;;;;;48.63;25.40;;;;;;;5.99;62.53;100834.55;1799558;78;20976;-76
2022/04/14 01:24:56;;;;;;;49.17;26.23;;;;;;;5.96;62.69;100834.59;1804325;78;21430;-78
2022/04/14 01:27:28;;;;;;;41.73;24.02;;;;;;;5.95;62.83;100831.99;1726642;81;27040;-79
2022/04/14 01:29:55;;;;;;;45.17;23.47;;;;;;;5.91;62.92;100825.94;1772322;80;21114;-76
2022/04/14 01:32:23;;;;;;;36.00;20.20;;;;;;;5.92;63.01;100825.05;1769497;80;20993;-76
2022/04/14 01:34:51;;;;;;;33.33;18.83;;;;;;;5.89;63.11;100828.98;1769148;80;21013;-77
2022/04/14 01:37:19;;;;;;;35.73;19.87;;;;;;;5.95;63.33;100837.19;1773476;79;20965;-76
2022/04/14 01:39:46;;;;;;;32.83;18.07;;;;;;;5.95;63.26;100833.29;1731422;81;21512;-77
2022/04/14 01:42:13;;;;;;;35.07;17.80;;;;;;;5.90;63.21;100830.70;1772593;79;21125;-76
2022/04/14 01:44:40;;;;;;;32.17;18.60;;;;;;;5.90;63.44;100828.09;1722412;81;21009;-76
2022/04/14 01:47:09;;;;;;;33.53;18.07;;;;;;;5.89;63.40;100834.63;1730223;81;21088;-76
2022/04/14 01:49:36;;;;;;;28.60;16.20;;;;;;;5.88;63.44;100833.78;1723558;81;21501;-76
2022/04/14 01:52:04;;;;;;;27.30;16.93;;;;;;;5.90;63.66;100831.14;1730747;81;21000;-76
2022/04/14 01:54:31;;;;;;;26.30;16.07;;;;;;;5.90;63.65;100836.34;1761473;80;21115;-76
2022/04/14 01:56:58;;;;;;;23.97;15.10;;;;;;;5.92;63.70;100832.85;1778339;78;21489;-76
2022/04/14 01:59:25;;;;;;;27.10;15.50;;;;;;;5.94;63.86;100834.18;1769908;80;21005;-76
2022/04/14 02:01:52;;;;;;;29.40;17.40;;;;;;;5.92;63.82;100837.20;1774066;80;21413;-76
2022/04/14 02:04:19;;;;;;;29.17;17.50;;;;;;;5.98;64.09;100831.51;1769799;80;20973;-76
2022/04/14 02:06:46;;;;;;;25.20;14.67;;;;;;;6.13;64.46;100827.89;1770822;80;21118;-76
2022/04/14 02:09:13;;;;;;;25.97;16.83;;;;;;;6.30;64.45;100826.83;1768637;80;20993;-76
2022/04/14 02:11:40;;;;;;;28.07;16.73;;;;;;;6.42;64.48;100824.05;1762826;80;21382;-76
2022/04/14 02:14:07;;;;;;;30.57;17.63;;;;;;;6.54;64.37;100820.41;1771576;80;21039;-76
2022/04/14 02:16:34;;;;;;;29.40;18.17;;;;;;;6.65;64.27;100816.80;1760785;80;21565;-76
2022/04/14 02:19:02;;;;;;;28.50;17.90;;;;;;;6.79;64.16;100820.92;1746393;80;21955;-76
2022/04/14 02:21:29;;;;;;;32.37;18.37;;;;;;;6.93;63.97;100812.03;1765974;80;20909;-76
2022/04/14 02:23:56;;;;;;;27.23;18.23;;;;;;;7.07;63.81;100814.88;1760913;80;21056;-76
2022/04/14 02:26:23;;;;;;;32.70;20.33;;;;;;;7.21;63.61;100812.89;1779503;79;21445;-76
2022/04/14 02:28:51;;;;;;;35.00;20.97;;;;;;;7.36;63.43;100815.67;1767898;80;21009;-76
2022/04/14 02:31:18;;;;;;;33.80;19.77;;;;;;;7.48;63.15;100815.48;1758108;80;21281;-76
2022/04/14 02:33:44;;;;;;;32.27;19.47;;;;;;;7.60;62.92;100817.86;1749634;80;21041;-76
2022/04/14 02:36:11;;;;;;;32.50;19.47;;;;;;;7.72;62.74;100809.39;1760086;80;21572;-79
2022/04/14 02:38:38;;;;;;;31.60;19.40;;;;;;;7.84;62.50;100810.45;1757111;80;20993;-76
2022/04/14 02:41:06;;;;;;;31.87;20.37;;;;;;;7.95;62.18;100805.02;1768680;80;21024;-76
2022/04/14 02:43:37;;;;;;;29.43;19.37;;;;;;;8.02;61.92;100809.24;1755173;80;21113;-76
2022/04/14 02:46:05;;;;;;;27.93;18.67;;;;;;;8.06;61.69;100803.05;1769909;80;21019;-76
2022/04/14 02:48:33;;;;;;;30.93;19.47;;;;;;;8.13;61.55;100802.50;1760744;80;21020;-76
2022/04/14 02:51:00;;;;;;;31.47;19.37;;;;;;;8.17;61.34;100803.69;1757595;79;21049;-77
2022/04/14 02:53:27;;;;;;;30.87;18.87;;;;;;;8.17;61.16;100797.16;1750552;80;21035;-76
2022/04/14 02:55:54;;;;;;;45.13;23.20;;;;;;;8.17;61.04;100798.47;1774216;80;21200;-76
2022/04/14 02:58:21;;;;;;;37.37;22.00;;;;;;;8.16;60.95;100797.22;1763615;80;22054;-77
2022/04/14 03:00:49;;;;;;;43.73;22.00;;;;;;;8.12;60.80;100794.23;1754872;80;21522;-76
2022/04/14 03:03:17;;;;;;;34.70;20.63;;;;;;;8.10;60.75;100800.81;1751043;80;21126;-77
2022/04/14 03:05:44;;;;;;;36.60;21.33;;;;;;;8.07;60.65;100802.63;1759916;80;21008;-76
2022/04/14 03:08:11;;;;;;;33.57;20.60;;;;;;;8.03;60.65;100802.67;1755457;80;21916;-78
2022/04/14 03:10:38;;;;;;;30.90;20.10;;;;;;;8.04;60.71;100804.41;1774762;80;21556;-76
2022/04/14 03:13:05;;;;;;;28.60;18.57;;;;;;;8.03;60.64;100793.98;1772496;80;21000;-76
2022/04/14 03:15:32;;;;;;;33.90;20.40;;;;;;;8.04;60.62;100791.80;1752993;80;21502;-76
2022/04/14 03:17:59;;;;;;;31.60;18.77;;;;;;;8.06;60.59;100788.70;1755558;79;21540;-76
2022/04/14 03:20:27;;;;;;;27.63;18.00;;;;;;;8.06;60.53;100779.56;1752511;80;21093;-76
2022/04/14 03:22:56;;;;;;;29.43;18.37;;;;;;;8.02;60.48;100785.30;1767434;80;21079;-76
2022/04/14 03:25:23;;;;;;;29.33;18.17;;;;;;;8.02;60.61;100787.91;1770655;80;21540;-77
2022/04/14 03:27:50;;;;;;;30.13;17.97;;;;;;;8.01;60.57;100784.05;1764415;80;21076;-77
2022/04/14 03:30:17;;;;;;;26.73;17.80;;;;;;;8.00;60.55;100782.30;1772661;80;21019;-76
2022/04/14 03:32:46;;;;;;;26.47;18.60;;;;;;;8.00;60.56;100779.23;1786000;79;21285;-76
2022/04/14 03:35:15;;;;;;;31.40;20.03;;;;;;;7.99;60.50;100778.84;1727758;82;21017;-76
2022/04/14 03:37:43;;;;;;;29.87;19.30;;;;;;;7.97;60.49;100781.06;1727860;82;21005;-77
2022/04/14 03:40:12;;;;;;;32.33;18.60;;;;;;;7.94;60.48;100779.37;1811879;78;20989;-76
2022/04/14 03:42:39;;;;;;;29.70;20.07;;;;;;;7.82;60.32;100780.48;1797088;78;21437;-76
2022/04/14 03:45:07;;;;;;;28.97;18.13;;;;;;;7.69;60.38;100789.87;1804497;78;21073;-77
2022/04/14 03:47:35;;;;;;;30.93;19.93;;;;;;;7.54;60.40;100785.37;1732726;81;21097;-76
2022/04/14 03:50:03;;;;;;;32.30;20.33;;;;;;;7.42;60.60;100786.88;1724058;81;21643;-76
2022/04/14 03:52:30;;;;;;;30.40;19.20;;;;;;;7.42;60.86;100778.20;1738132;81;21012;-75
2022/04/14 03:54:57;;;;;;;32.00;19.63;;;;;;;7.41;61.07;100784.31;1749731;81;21242;-76
2022/04/14 03:57:25;;;;;;;33.53;19.93;;;;;;;7.38;61.32;100780.01;1721863;81;21098;-76
2022/04/14 03:59:52;;;;;;;30.73;19.27;;;;;;;7.38;61.44;100777.41;1722826;83;21008;-76
2022/04/14 04:02:19;;;;;;;30.17;18.87;;;;;;;7.37;61.49;100770.45;1722713;83;20989;-76
2022/04/14 04:04:46;;;;;;;26.70;17.13;;;;;;;7.39;61.49;100777.80;1724173;81;21505;-75
2022/04/14 04:07:13;;;;;;;26.47;17.03;;;;;;;7.30;61.39;100777.53;1723065;81;21044;-74
2022/04/14 04:09:40;;;;;;;27.40;19.07;;;;;;;7.23;61.32;100780.27;1702037;83;21233;-75
2022/04/14 04:12:08;;;;;;;31.97;19.63;;;;;;;7.16;61.52;100775.61;1714343;83;21024;-75
2022/04/14 04:14:35;;;;;;;27.70;17.93;;;;;;;7.16;61.67;100775.61;1714306;83;21028;-75
2022/04/14 04:17:04;;;;;;;35.57;18.37;;;;;;;7.17;61.69;100779.07;1719543;81;21490;-75
2022/04/14 04:19:31;;;;;;;30.03;18.93;;;;;;;7.07;61.75;100773.17;1685804;85;21794;-76
2022/04/14 04:21:58;;;;;;;30.50;19.03;;;;;;;7.01;61.83;100778.45;1685934;85;21153;-76
2022/04/14 04:24:25;;;;;;;31.17;20.07;;;;;;;6.92;61.83;100780.77;1693967;81;21070;-76
2022/04/14 04:26:52;;;;;;;34.47;20.50;;;;;;;6.86;61.98;100783.03;1706344;81;21022;-77
2022/04/14 04:29:19;;;;;;;31.73;19.80;;;;;;;6.80;62.16;100780.53;1710854;81;20925;-76
2022/04/14 04:31:46;;;;;;;30.57;19.30;;;;;;;6.80;62.26;100793.55;1708904;81;21036;-76
2022/04/14 04:34:13;;;;;;;33.20;19.87;;;;;;;6.81;62.47;100785.29;1713594;81;21187;-76
2022/04/14 04:36:40;;;;;;;31.53;19.43;;;;;;;6.81;62.65;100790.50;1714067;81;21015;-76
2022/04/14 04:39:07;;;;;;;28.80;20.03;;;;;;;6.75;62.54;100795.81;1745438;79;20989;-76
2022/04/14 04:41:34;;;;;;;29.63;19.77;;;;;;;6.72;62.86;100798.02;1766209;79;20940;-76
2022/04/14 04:44:01;;;;;;;30.90;19.33;;;;;;;6.70;63.08;100803.23;1777632;79;21530;-76
2022/04/14 04:46:27;;;;;;;38.10;24.73;;;;;;;6.70;63.26;100800.63;1766042;79;21061;-76
2022/04/14 04:48:54;;;;;;;30.27;21.03;;;;;;;6.74;63.35;100799.31;1731116;81;21010;-75
2022/04/14 04:51:21;;;;;;;30.93;19.60;;;;;;;6.78;63.33;100800.53;1771419;79;21084;-75
2022/04/14 04:53:48;;;;;;;30.07;19.63;;;;;;;6.86;63.54;100809.53;1767737;79;21460;-75
2022/04/14 04:56:17;;;;;;;30.13;20.87;;;;;;;6.91;63.61;100810.33;1772239;80;21040;-76
2022/04/14 04:58:45;;;;;;;35.30;21.17;;;;;;;7.01;63.53;100812.34;1760788;79;21107;-76
2022/04/14 05:01:12;;;;;;;37.20;21.73;;;;;;;7.16;63.51;100813.41;1761876;79;21008;-75
2022/04/14 05:03:39;;;;;;;34.43;21.23;;;;;;;7.29;63.46;100808.41;1761164;79;21418;-76
2022/04/14 05:06:06;;;;;;;29.93;20.33;;;;;;;7.42;63.40;100814.26;1761760;79;21500;-75
2022/04/14 05:08:33;;;;;;;32.60;21.50;;;;;;;7.54;63.25;100812.76;1764822;79;21015;-75
2022/04/14 05:11:00;;;;;;;38.43;24.10;;;;;;;7.66;63.04;100813.42;1749007;79;21077;-75
2022/04/14 05:13:27;;;;;;;38.47;24.67;;;;;;;7.75;63.01;100811.48;1733660;80;21020;-75
2022/04/14 05:15:54;;;;;;;33.93;21.50;;;;;;;7.84;62.93;100813.05;1757105;79;21021;-76
2022/04/14 05:18:21;;;;;;;34.40;22.00;;;;;;;7.92;62.76;100815.52;1769472;79;20973;-76
2022/04/14 05:20:48;;;;;;;54.93;30.33;;;;;;;7.99;62.69;100806.70;1773098;79;21448;-76
2022/04/14 05:23:15;;;;;;;41.77;24.93;;;;;;;8.07;62.53;100810.47;1779099;78;21158;-76
2022/04/14 05:25:42;;;;;;;28.63;21.07;;;;;;;8.12;62.64;100808.59;1770328;78;21088;-75
2022/04/14 05:28:09;;;;;;;34.43;21.77;;;;;;;8.16;62.74;100811.13;1778349;78;21005;-76
2022/04/14 05:30:36;;;;;;;33.47;21.20;;;;;;;8.21;62.62;100812.34;1762399;79;21036;-75
2022/04/14 05:33:05;;;;;;;31.80;22.17;;;;;;;8.23;62.43;100807.51;1754078;80;21032;-76
2022/04/14 05:35:32;;;;;;;29.97;19.60;;;;;;;8.28;62.53;100807.39;1791788;79;21148;-76
2022/04/14 05:37:58;;;;;;;26.70;18.27;;;;;;;8.31;62.61;100806.02;1752128;78;21036;-76
2022/04/14 05:40:26;;;;;;;24.57;17.97;;;;;;;8.31;62.86;100806.02;1773266;80;21008;-76
2022/04/14 05:42:53;;;;;;;27.37;18.93;;;;;;;8.34;63.08;100807.70;1770667;79;20993;-76
2022/04/14 05:45:21;;;;;;;32.80;19.10;;;;;;;8.38;63.11;100808.92;1758640;78;21024;-76
2022/04/14 05:47:47;;;;;;;28.70;17.90;;;;;;;8.42;63.02;100811.05;1769570;78;21916;-76
2022/04/14 05:50:15;;;;;;;26.40;18.77;;;;;;;8.47;63.30;100805.28;1773979;78;20985;-76
2022/04/14 05:52:42;;;;;;;30.07;18.63;;;;;;;8.52;63.32;100814.34;1775822;78;21024;-75
2022/04/14 05:55:09;;;;;;;26.10;18.20;;;;;;;8.57;63.30;100815.95;1754283;79;20990;-76
2022/04/14 05:57:36;;;;;;;25.27;17.07;;;;;;;8.64;63.50;100812.75;1776032;78;21175;-75
2022/04/14 06:00:05;;;;;;;24.03;18.07;;;;;;;8.72;63.62;100810.82;1753651;78;21095;-74
2022/04/14 06:02:32;;;;;;;25.33;17.33;;;;;;;8.77;63.92;100808.97;1779265;78;21059;-75
2022/04/14 06:04:59;;;;;;;25.87;17.07;;;;;;;8.86;64.07;100815.73;1778323;78;21016;-77
2022/04/14 06:07:26;;;;;;;23.07;16.53;;;;;;;8.91;63.97;100817.34;1761452;78;21351;-75
2022/04/14 06:09:53;;;;;;;26.50;18.13;;;;;;;8.96;63.87;100810.70;1774932;78;21087;-76
2022/04/14 06:12:20;;;;;;;28.97;19.57;;;;;;;9.03;63.73;100812.72;1762305;78;21078;-75
2022/04/14 06:14:48;;;;;;;27.87;20.07;;;;;;;9.10;63.56;100806.45;1763484;79;21020;-75
2022/04/14 06:17:15;;;;;;;31.17;20.83;;;;;;;9.20;63.49;100801.42;1773471;79;20989;-76
2022/04/14 06:19:41;;;;;;;30.83;20.90;;;;;;;9.30;63.46;100800.27;1767416;78;21008;-76
2022/04/14 06:22:08;;;;;;;33.70;21.53;;;;;;;9.42;63.07;100806.08;1773801;78;21279;-76
2022/04/14 06:24:35;;;;;;;34.37;24.17;;;;;;;9.54;62.84;100807.94;1763010;78;21163;-76
2022/04/14 06:27:03;;;;;;;37.77;25.53;;;;;;;9.68;62.73;100809.34;1775026;78;21151;-74
2022/04/14 06:29:30;;;;;;;35.53;22.87;;;;;;;9.81;62.58;100808.12;1783088;79;21037;-78
2022/04/14 06:31:57;;;;;;;30.73;21.53;;;;;;;9.94;62.26;100797.69;1784778;79;21001;-76
2022/04/14 06:34:24;;;;;;;31.73;20.20;;;;;;;10.08;61.95;100799.91;1782372;79;21021;-76
2022/04/14 06:36:51;;;;;;;33.23;22.70;;;;;;;10.22;61.64;100795.59;1780044;79;21038;-76
2022/04/14 06:39:18;;;;;;;38.37;26.70;;;;;;;10.35;61.19;100788.27;1780369;79;21477;-76
2022/04/14 06:41:45;;;;;;;39.47;26.97;;;;;;;10.44;60.64;100787.52;1777484;79;20989;-76
2022/04/14 06:44:12;;;;;;;49.07;30.67;;;;;;;10.53;60.15;100782.48;1770356;80;21482;-76
2022/04/14 06:46:39;;;;;;;51.20;31.67;;;;;;;10.61;60.06;100792.25;1778126;80;20973;-76
2022/04/14 06:49:06;;;;;;;51.20;30.83;;;;;;;10.70;59.84;100785.89;1765338;80;21471;-75
2022/04/14 06:51:34;;;;;;;46.23;31.20;;;;;;;10.80;59.74;100789.06;1773877;80;21001;-75
2022/04/14 06:54:01;;;;;;;58.77;36.73;;;;;;;10.90;59.46;100785.25;1769390;80;21052;-76
2022/04/14 06:56:28;;;;;;;75.40;47.47;;;;;;;11.00;59.25;100792.35;1762805;80;21516;-76
2022/04/14 06:58:54;;;;;;;65.97;42.30;;;;;;;11.07;58.89;100785.55;1765454;80;22167;-78
2022/04/14 07:01:23;;;;;;;42.47;27.33;;;;;;;11.14;58.67;100785.77;1777802;80;21076;-77
2022/04/14 07:03:50;;;;;;;42.43;27.30;;;;;;;11.23;58.60;100781.97;1773396;79;21021;-74
2022/04/14 07:06:17;;;;;;;33.90;24.20;;;;;;;11.31;58.37;100782.57;1770310;80;21001;-75
2022/04/14 07:08:44;;;;;;;114.73;56.43;;;;;;;11.39;58.21;100782.31;1771722;80;21009;-72
2022/04/14 07:11:11;;;;;;;91.93;45.40;;;;;;;11.49;58.09;100788.09;1761280;80;21041;-75
2022/04/14 07:13:38;;;;;;;60.67;33.63;;;;;;;11.56;57.94;100783.89;1775209;80;21105;-76
2022/04/14 07:16:05;;;;;;;146.37;80.10;;;;;;;11.65;57.91;100785.34;1765901;79;21009;-76
2022/04/14 07:18:32;;;;;;;59.45;35.80;;;;;;;11.72;57.62;100773.72;1770765;80;21453;-76
2022/04/14 07:20:59;;;;;;;37.17;23.83;;;;;;;11.82;57.69;100776.39;1773527;80;21029;-77
2022/04/14 07:23:27;;;;;;;37.07;23.33;;;;;;;11.92;57.47;100777.42;1770512;80;21021;-77
2022/04/14 07:25:54;;;;;;;32.67;20.03;;;;;;;11.99;57.20;100782.37;1773765;80;21182;-77
2022/04/14 07:28:21;;;;;;;28.57;19.47;;;;;;;12.08;57.26;100782.48;1754674;79;20974;-77
2022/04/14 07:30:48;;;;;;;31.87;19.60;;;;;;;12.16;56.93;100781.74;1771102;79;21054;-77
2022/04/14 07:33:15;;;;;;;25.17;18.55;;;;;;;12.24;56.79;100784.94;1785232;79;21065;-77
2022/04/14 07:35:42;;;;;;;30.45;18.98;;;;;;;12.33;56.50;100788.14;1782604;79;21028;-76
2022/04/14 07:38:09;;;;;;;26.20;19.77;;;;;;;12.36;56.15;100781.02;1781157;79;22016;-78
2022/04/14 07:40:36;;;;;;;28.90;19.17;;;;;;;12.43;56.16;100785.10;1782538;79;21025;-76
2022/04/14 07:43:03;;;;;;;26.27;19.30;;;;;;;12.53;56.16;100782.14;1778005;79;20990;-76
2022/04/14 07:45:30;;;;;;;27.70;19.23;;;;;;;12.61;56.14;100782.23;1780312;79;21022;-76
2022/04/14 07:47:57;;;;;;;27.83;18.90;;;;;;;12.67;55.95;100782.45;1784791;79;21007;-77
2022/04/14 07:50:24;;;;;;;26.20;18.98;;;;;;;12.79;56.16;100785.03;1779839;79;21200;-76
2022/04/14 07:52:59;;;;;;;27.80;19.82;;;;;;;12.94;56.17;100774.77;1773046;79;21013;-76
2022/04/14 07:55:34;;;;;;;26.65;18.30;;;;;;;13.10;56.02;100777.59;1770275;79;21100;-77
2022/04/14 07:58:09;;;;;;;26.52;17.60;;;;;;;13.26;55.67;100773.05;1793558;79;20994;-75
2022/04/14 08:00:38;;;;;;;29.12;18.00;;;;;;;13.40;55.45;100773.31;1790674;79;21016;-75
2022/04/14 08:03:07;;;;;;;29.00;19.37;;;;;;;13.57;55.36;100776.54;1771411;79;21167;-76
2022/04/14 08:05:42;;;;;;;26.35;18.55;;;;;;;13.73;55.12;100776.27;1769009;80;21046;-76
2022/04/14 08:08:15;;;;;;;27.27;18.90;;;;;;;13.88;54.87;100772.55;1764983;79;20991;-77
2022/04/14 08:10:45;;;;;;;27.85;18.80;;;;;;;14.02;54.72;100771.45;1741634;82;21513;-76
2022/04/14 08:13:14;;;;;;;29.37;19.12;;;;;;;14.18;54.58;100771.16;1737248;82;21036;-76
2022/04/14 08:15:42;;;;;;;24.20;18.75;;;;;;;14.34;54.46;100772.63;1741299;81;21106;-77
2022/04/14 08:18:10;;;;;;;27.95;18.40;;;;;;;14.51;54.28;100772.67;1728792;82;21017;-77
2022/04/14 08:20:42;;;;;;;26.95;17.80;;;;;;;14.66;54.01;100767.19;1739523;81;21511;-77
2022/04/14 08:23:14;;;;;;;28.05;18.65;;;;;;;14.76;53.68;100769.37;1731167;82;21661;-80
2022/04/14 08:25:41;;;;;;;24.77;16.87;;;;;;;14.92;53.81;100765.91;1725492;82;21063;-77
2022/04/14 08:28:08;;;;;;;26.25;18.05;;;;;;;15.13;53.79;100765.31;1735889;81;21189;-78
2022/04/14 08:30:36;;;;;;;28.42;18.52;;;;;;;15.32;53.52;100762.58;1726106;82;21470;-76
2022/04/14 08:33:12;;;;;;;24.65;18.45;;;;;;;15.52;53.30;100761.58;1727254;82;21016;-76
2022/04/14 08:35:39;;;;;;;24.15;18.30;;;;;;;15.68;52.92;100756.80;1730031;82;20992;-74
2022/04/14 08:38:08;;;;;;;27.70;19.15;;;;;;;15.85;52.75;100758.10;1735487;82;21032;-78
2022/04/14 08:40:38;;;;;;;25.15;17.65;;;;;;;15.97;52.18;100750.85;1738087;82;21019;-78
2022/04/14 08:43:10;;;;;;;27.77;18.57;;;;;;;16.13;52.18;100756.17;1738992;81;21048;-78
2022/04/14 08:45:50;;;;;;;24.15;17.65;;;;;;;16.29;51.63;100750.88;1736889;82;21549;-75
2022/04/14 08:48:20;;;;;;;27.73;17.87;;;;;;;16.42;51.42;100755.87;1729941;81;21519;-74
2022/04/14 08:50:51;;;;;;;22.75;16.80;;;;;;;16.59;51.20;100750.95;1740003;81;21619;-72
2022/04/14 08:53:20;;;;;;;24.02;16.27;;;;;;;16.76;51.04;100747.34;1741049;81;21115;-72
2022/04/14 08:55:48;;;;;;;21.85;16.55;;;;;;;16.95;50.80;100745.37;1741124;81;21441;-76
2022/04/14 08:58:18;;;;;;;26.50;17.92;;;;;;;17.14;50.54;100749.61;1739844;81;21212;-77
2022/04/14 09:00:48;;;;;;;25.60;16.40;;;;;;;17.31;50.17;100741.98;1740699;81;20933;-76
2022/04/14 09:03:18;;;;;;;26.35;16.87;;;;;;;17.51;49.95;100740.78;1714452;81;21022;-73
2022/04/14 09:05:45;;;;;;;23.25;15.68;;;;;;;17.74;49.70;100739.40;1729317;81;21111;-74
2022/04/14 09:08:12;;;;;;;23.07;15.15;;;;;;;17.94;49.19;100739.03;1721306;82;21020;-76
2022/04/14 09:10:40;;;;;;;22.85;14.80;;;;;;;18.10;48.46;100742.07;1742525;81;20977;-74
2022/04/14 09:13:07;;;;;;;19.48;13.83;;;;;;;18.27;48.02;100733.88;1733790;81;21008;-74
2022/04/14 09:15:34;;;;;;;19.25;14.45;;;;;;;18.44;47.44;100735.45;1721459;82;21095;-74
2022/04/14 09:18:01;;;;;;;21.90;14.40;;;;;;;18.56;47.05;100733.80;1738350;82;21719;-73
2022/04/14 09:20:36;;;;;;;23.87;15.15;;;;;;;18.72;46.66;100741.98;1740258;81;21013;-77
2022/04/14 09:23:18;;;;;;;21.02;14.20;;;;;;;18.86;46.45;100734.47;1743011;82;21036;-75
2022/04/14 09:25:45;;;;;;;23.52;15.83;;;;;;;19.06;46.24;100732.28;1731996;81;20981;-73
2022/04/14 09:28:15;;;;;;;19.77;14.65;;;;;;;19.17;45.48;100735.91;1735307;80;21037;-73
2022/04/14 09:31:05;;;;;;;22.80;15.58;;;;;;;19.23;45.22;100731.14;1734241;82;21209;-80
2022/04/14 09:33:35;;;;;;;20.15;14.33;;;;;;;19.54;44.96;100728.58;1738332;80;21042;-77
2022/04/14 09:36:17;;;;;;;20.50;14.35;;;;;;;19.54;44.96;100728.58;1775796;80;21009;-75
2022/04/14 09:39:01;;;;;;;22.00;14.78;;;;;;;19.69;44.54;100720.88;1783937;80;21045;-77
2022/04/14 09:41:42;;;;;;;21.02;14.47;;;;;;;19.93;44.45;100716.13;1776388;80;21068;-73
2022/04/14 09:44:12;;;;;;;17.77;13.40;;;;;;;20.22;44.22;100712.20;1779881;80;21094;-74
2022/04/14 09:46:46;;;;;;;18.52;13.45;;;;;;;20.47;43.80;100713.09;1762100;79;21486;-82
2022/04/14 09:49:16;;;;;;;20.17;14.23;;;;;;;20.73;43.54;100715.20;1764648;80;21034;-75
2022/04/14 09:51:47;;;;;;;19.27;13.35;;;;;;;20.95;43.02;100707.78;1786932;79;20973;-75
2022/04/14 09:54:20;;;;;;;18.10;13.00;;;;;;;21.04;42.26;100703.07;1788765;79;21577;-75
2022/04/14 09:56:56;;;;;;;20.08;13.68;;;;;;;21.18;42.11;100713.17;1780510;79;21145;-78
2022/04/14 09:59:28;;;;;;;17.77;13.00;;;;;;;21.46;42.02;100700.77;1770193;79;21608;-77
2022/04/14 10:02:14;;;;;;;19.77;13.13;;;;;;;21.73;41.54;100697.75;1751817;79;21087;-75
2022/04/14 10:04:47;;;;;;;19.77;12.98;;;;;;;21.95;41.07;100700.02;1782750;79;20967;-76
2022/04/14 10:07:19;;;;;;;18.23;12.70;;;;;;;22.08;40.47;100690.06;1761650;79;21563;-75
2022/04/14 10:09:50;;;;;;;19.15;12.90;;;;;;;22.30;40.08;100697.21;1752596;80;21163;-74
2022/04/14 10:12:27;;;;;;;17.55;12.60;;;;;;;22.44;39.36;100694.25;1767135;79;21022;-74
2022/04/14 10:15:09;;;;;;;17.23;12.00;;;;;;;22.46;38.76;100695.48;1776782;79;21156;-74
2022/04/14 10:17:39;;;;;;;17.07;13.25;;;;;;;22.53;38.65;100692.67;1787001;79;21396;-74
2022/04/14 10:20:10;;;;;;;16.17;12.10;;;;;;;22.78;38.44;100687.94;1770248;79;20982;-77
2022/04/14 10:22:38;;;;;;;18.60;12.73;;;;;;;23.15;38.41;100689.23;1746339;80;21168;-74
2022/04/14 10:25:07;;;;;;;16.10;11.53;;;;;;;23.55;38.21;100688.45;1769049;80;20998;-75
2022/04/14 10:27:37;;;;;;;15.00;11.43;;;;;;;23.81;38.05;100684.04;1791438;80;26514;-75
2022/04/14 10:30:06;;;;;;;17.73;11.55;;;;;;;24.03;37.53;100680.30;1751837;80;21075;-76
2022/04/14 10:32:35;;;;;;;14.95;11.05;;;;;;;24.19;36.78;100685.11;1743862;80;20978;-74
2022/04/14 10:35:08;;;;;;;21.52;14.28;;;;;;;24.24;36.33;100688.23;1769571;80;21104;-75
2022/04/14 10:37:42;;;;;;;18.27;12.37;;;;;;;24.56;36.14;100689.37;1759685;78;20989;-75
2022/04/14 10:40:11;;;;;;;17.07;12.05;;;;;;;24.91;35.83;100688.80;1782223;78;21107;-78
2022/04/14 10:42:42;;;;;;;16.35;11.90;;;;;;;25.27;35.35;100690.87;1760714;80;21017;-75
2022/04/14 10:45:22;;;;;;;15.50;11.75;;;;;;;25.43;34.50;100691.11;1772277;79;21036;-78
2022/04/14 10:47:57;;;;;;;19.27;12.98;;;;;;;25.56;34.08;100690.80;1782859;78;21485;-80
2022/04/14 10:50:31;;;;;;;15.83;11.78;;;;;;;25.57;33.84;100683.09;1745226;80;21061;-79
2022/04/14 10:53:21;;;;;;;15.50;10.78;;;;;;;25.73;33.86;100688.67;1780634;79;21022;-80
2022/04/14 10:55:50;;;;;;;16.97;11.85;;;;;;;25.90;33.73;100684.38;1784204;79;21006;-77
2022/04/14 10:58:41;;;;;;;16.17;11.45;;;;;;;26.17;33.01;100677.31;1784301;79;21852;-78
2022/04/14 11:01:13;;;;;;;13.70;10.70;;;;;;;26.17;33.01;100677.31;1777942;80;21516;-79
2022/04/14 11:03:55;;;;;;;18.07;11.20;;;;;;;26.41;32.84;100683.42;1742776;80;21552;-76
2022/04/14 11:06:47;;;;;;;15.13;10.40;;;;;;;26.58;32.60;100684.49;1769521;80;21016;-77
2022/04/14 11:09:45;;;;;;;16.37;10.72;;;;;;;26.60;32.03;100679.78;1784868;79;21047;-79
2022/04/14 11:12:41;;;;;;;17.73;11.15;;;;;;;26.61;31.87;100674.77;1779313;78;20996;-81
2022/04/14 11:15:09;;;;;;;12.68;10.65;;;;;;;26.67;31.42;100676.33;1777154;79;21103;-82
2022/04/14 11:17:48;;;;;;;16.32;10.68;;;;;;;26.54;31.18;100678.55;1777033;80;20995;-77
2022/04/14 11:20:34;;;;;;;16.77;11.25;;;;;;;26.45;31.05;100673.57;1763638;79;21020;-77
2022/04/14 11:23:17;;;;;;;17.10;10.90;;;;;;;26.40;30.84;100677.72;1728346;81;21549;-80